Time;durP1;ratioP1;P1;durP2;ratioP2;P2;SDS_P1;SDS_P2;PMS_P1;PMS_P2;Temp;Humidity;BMP_temperature;BMP_pressure;BME280_temperature;BME280_humidity;BME280_pressure;Samples;Min_cycle;Max_cycle;Signal;HPM_P1;HPM_P2
2021/06/03 00:00:45;;;;;;;2.28;2.00;;;;;;;15.13;34.43;95763.06;4994618;28;20098;-65
2021/06/03 00:03:11;;;;;;;2.15;2.00;;;;;;;15.05;34.08;95762.22;4998229;28;20107;-66
2021/06/03 00:05:50;;;;;;;1.98;1.88;;;;;;;14.99;35.31;95765.72;5007272;28;20114;-66
2021/06/03 00:08:16;;;;;;;2.17;1.98;;;;;;;14.87;34.86;95760.13;5006507;28;20530;-65
2021/06/03 00:10:50;;;;;;;1.92;1.83;;;;;;;14.77;35.13;95751.63;5000476;28;20113;-66
2021/06/03 00:13:16;;;;;;;1.85;1.70;;;;;;;14.81;36.13;95769.81;4995906;28;20071;-66
2021/06/03 00:15:41;;;;;;;2.30;2.10;;;;;;;14.72;34.99;95760.25;4999704;28;20145;-66
2021/06/03 00:18:07;;;;;;;1.80;1.70;;;;;;;14.67;35.30;95760.03;5007769;28;20102;-66
2021/06/03 00:20:33;;;;;;;2.47;1.95;;;;;;;14.63;35.51;95769.50;5008060;28;20090;-66
2021/06/03 00:22:58;;;;;;;2.22;2.03;;;;;;;14.56;35.35;95762.28;5006816;28;20575;-66
2021/06/03 00:25:24;;;;;;;2.17;1.90;;;;;;;14.57;35.72;95766.59;5006946;28;20078;-67
2021/06/03 00:27:49;;;;;;;2.58;1.88;;;;;;;14.51;35.81;95767.38;5008547;28;20074;-66
2021/06/03 00:30:15;;;;;;;3.38;2.00;;;;;;;14.48;35.73;95766.97;5001798;28;20516;-66
2021/06/03 00:32:41;;;;;;;2.22;2.03;;;;;;;14.48;35.89;95764.28;5006915;28;20117;-66
2021/06/03 00:35:07;;;;;;;2.97;2.10;;;;;;;14.41;35.86;95751.69;5011991;28;20144;-66
2021/06/03 00:37:32;;;;;;;2.30;2.10;;;;;;;14.40;35.98;95751.88;5011136;28;20178;-66
2021/06/03 00:39:58;;;;;;;1.98;1.77;;;;;;;14.39;36.22;95751.06;5011096;28;20082;-66
2021/06/03 00:42:24;;;;;;;2.67;1.90;;;;;;;14.41;36.30;95751.69;5012213;28;20129;-66
2021/06/03 00:44:50;;;;;;;3.15;1.90;;;;;;;14.35;36.24;95749.81;5011971;28;20086;-66
2021/06/03 00:47:15;;;;;;;1.85;1.70;;;;;;;14.31;36.42;95749.38;5012179;28;20141;-66
2021/06/03 00:49:41;;;;;;;1.83;1.73;;;;;;;14.24;36.53;95756.53;5011546;28;20117;-66
2021/06/03 00:52:06;;;;;;;1.98;1.85;;;;;;;14.22;36.36;95763.97;5012874;28;20086;-66
2021/06/03 00:54:32;;;;;;;2.65;2.08;;;;;;;14.19;36.58;95759.00;5026711;28;20708;-66
2021/06/03 00:56:57;;;;;;;2.55;2.05;;;;;;;14.17;36.53;95759.19;5011095;28;20156;-66
2021/06/03 00:59:22;;;;;;;2.90;2.00;;;;;;;14.18;36.49;95755.47;5011040;28;20118;-66
2021/06/03 01:01:48;;;;;;;2.20;1.85;;;;;;;14.21;36.59;95760.44;5011348;28;20110;-66
2021/06/03 01:04:17;;;;;;;1.90;1.80;;;;;;;14.12;37.24;95758.13;5010668;28;20078;-66
2021/06/03 01:06:43;;;;;;;1.92;1.63;;;;;;;14.12;37.33;95758.13;5011626;28;20106;-66
2021/06/03 01:09:35;;;;;;;1.95;1.70;;;;;;;14.03;36.79;95770.84;5011689;28;20128;-66
2021/06/03 01:12:00;;;;;;;2.33;1.83;;;;;;;13.98;37.12;95771.44;5001490;28;20105;-66
2021/06/03 01:14:27;;;;;;;1.70;1.60;;;;;;;14.00;37.43;95781.97;5009811;28;20126;-66
2021/06/03 01:16:56;;;;;;;1.80;1.70;;;;;;;13.95;37.52;95780.66;5008679;28;20541;-66
2021/06/03 01:19:32;;;;;;;1.77;1.67;;;;;;;13.92;37.11;95778.41;5024978;28;20110;-66
2021/06/03 01:22:34;;;;;;;1.83;1.73;;;;;;;13.91;37.58;95792.78;5009865;28;20134;-66
2021/06/03 01:24:59;;;;;;;2.63;2.00;;;;;;;13.79;37.38;95791.63;4997306;28;20097;-66
2021/06/03 01:27:30;;;;;;;2.58;1.70;;;;;;;13.74;38.01;95792.25;5025864;28;20144;-66
2021/06/03 01:30:02;;;;;;;2.70;1.80;;;;;;;13.73;38.29;95792.44;5011353;28;20757;-66
2021/06/03 01:32:28;;;;;;;1.90;1.70;;;;;;;13.67;37.66;95794.84;5010792;28;20062;-66
2021/06/03 01:34:53;;;;;;;4.78;2.00;;;;;;;13.66;37.64;95787.84;5009727;28;20122;-66
2021/06/03 01:37:19;;;;;;;6.03;1.80;;;;;;;13.63;37.95;95792.78;4990887;28;20090;-65
2021/06/03 01:39:45;;;;;;;2.20;1.60;;;;;;;13.56;37.97;95796.19;4993423;28;20104;-66
2021/06/03 01:42:10;;;;;;;1.70;1.60;;;;;;;13.46;37.86;95794.88;5008550;28;20125;-66
2021/06/03 01:44:36;;;;;;;3.67;1.70;;;;;;;13.39;38.25;95786.78;5010750;28;20086;-66
2021/06/03 01:47:04;;;;;;;2.53;1.80;;;;;;;13.27;38.30;95789.16;4989442;28;20109;-66
2021/06/03 01:49:29;;;;;;;2.10;1.80;;;;;;;13.10;39.01;95793.91;5009661;28;20169;-66
2021/06/03 01:52:00;;;;;;;1.85;1.70;;;;;;;13.01;39.45;95793.19;5004613;28;20071;-66
2021/06/03 01:54:25;;;;;;;2.72;1.70;;;;;;;12.98;39.07;95797.06;4989037;28;20112;-66
2021/06/03 01:56:51;;;;;;;1.80;1.70;;;;;;;12.98;39.09;95796.25;4993028;28;20117;-65
2021/06/03 01:59:16;;;;;;;2.60;1.83;;;;;;;12.97;39.03;95794.56;4993289;28;20136;-66
2021/06/03 02:01:42;;;;;;;2.40;1.60;;;;;;;12.93;39.75;95800.28;5009382;28;20180;-66
2021/06/03 02:04:07;;;;;;;3.53;1.67;;;;;;;12.93;39.32;95789.59;5010808;28;20120;-66
2021/06/03 02:06:32;;;;;;;1.92;1.60;;;;;;;12.92;39.39;95795.97;5006953;28;20099;-66
2021/06/03 02:08:58;;;;;;;1.73;1.63;;;;;;;12.91;38.93;95788.97;5009225;28;20090;-65
2021/06/03 02:11:23;;;;;;;1.73;1.63;;;;;;;12.92;39.16;95790.63;5010454;28;20169;-65
2021/06/03 02:13:55;;;;;;;1.90;1.70;;;;;;;12.89;41.16;95792.84;4992261;28;20106;-66
2021/06/03 02:16:35;;;;;;;2.67;1.70;;;;;;;12.88;39.50;95793.84;5006180;28;20185;-65
2021/06/03 02:19:06;;;;;;;4.13;1.77;;;;;;;12.83;39.47;95793.59;5009305;28;20152;-66
2021/06/03 02:21:32;;;;;;;1.75;1.60;;;;;;;12.90;39.40;95797.16;5007017;28;20552;-66
2021/06/03 02:23:59;;;;;;;2.10;1.70;;;;;;;12.89;39.36;95796.34;5009608;28;20086;-66
2021/06/03 02:26:24;;;;;;;2.33;1.60;;;;;;;12.87;39.12;95792.19;5008794;28;20110;-66
2021/06/03 02:28:50;;;;;;;1.70;1.60;;;;;;;12.85;39.32;95795.06;5008999;28;20074;-66
2021/06/03 02:31:15;;;;;;;2.95;1.70;;;;;;;12.79;39.52;95804.66;5008932;28;20552;-66
2021/06/03 02:33:41;;;;;;;1.63;1.50;;;;;;;12.75;39.66;95795.34;5008168;28;20463;-66
2021/06/03 02:36:07;;;;;;;1.40;1.30;;;;;;;12.77;39.48;95801.34;5009424;28;20559;-66
2021/06/03 02:38:33;;;;;;;1.75;1.65;;;;;;;12.74;39.62;95806.22;5004460;28;20721;-66
2021/06/03 02:41:00;;;;;;;4.43;1.70;;;;;;;12.77;40.76;95811.19;5025128;28;20093;-66
2021/06/03 02:43:25;;;;;;;2.55;1.70;;;;;;;12.69;41.73;95806.81;5009591;28;20126;-66
2021/06/03 02:45:51;;;;;;;2.85;1.90;;;;;;;12.51;40.51;95807.19;5008292;28;20102;-66
2021/06/03 02:48:16;;;;;;;2.53;1.75;;;;;;;12.56;41.10;95796.78;5009630;28;20852;-66
2021/06/03 02:50:42;;;;;;;3.60;1.58;;;;;;;12.68;41.05;95810.47;5009712;28;20106;-66
2021/06/03 02:53:07;;;;;;;1.27;1.20;;;;;;;12.72;40.12;95806.41;5009645;28;20074;-66
2021/06/03 02:55:33;;;;;;;1.58;1.48;;;;;;;12.71;40.39;95802.09;5009564;28;20563;-65
2021/06/03 02:57:58;;;;;;;2.22;1.50;;;;;;;12.69;40.11;95797.94;5003117;28;20103;-66
2021/06/03 03:00:26;;;;;;;2.95;1.77;;;;;;;12.73;40.35;95804.56;5008630;28;20136;-66
2021/06/03 03:02:51;;;;;;;1.50;1.40;;;;;;;12.74;40.29;95803.56;5008989;28;20136;-65
2021/06/03 03:05:17;;;;;;;3.25;1.50;;;;;;;12.74;39.77;95808.91;5010026;28;20333;-66
2021/06/03 03:07:42;;;;;;;1.80;1.70;;;;;;;12.70;40.36;95805.78;5005529;28;20462;-66
2021/06/03 03:10:11;;;;;;;1.98;1.70;;;;;;;12.74;40.52;95811.56;5009077;28;20099;-66
2021/06/03 03:12:36;;;;;;;;;;;;;;;12.75;39.88;95811.38;5009204;28;20074;-66
2021/06/03 03:15:04;;;;;;;1.65;1.55;;;;;;;12.79;40.71;95819.88;5007899;28;19992;-66
2021/06/03 03:17:30;;;;;;;4.32;2.00;;;;;;;12.79;41.02;95820.69;5004817;28;20140;-66
2021/06/03 03:19:55;;;;;;;3.80;1.60;;;;;;;12.84;40.27;95822.78;5009217;28;20502;-66
2021/06/03 03:22:20;;;;;;;1.95;1.75;;;;;;;12.88;40.22;95828.56;5008641;28;20114;-66
2021/06/03 03:24:46;;;;;;;1.70;1.60;;;;;;;12.89;40.20;95825.72;5009602;28;20117;-66
2021/06/03 03:27:11;;;;;;;1.70;1.60;;;;;;;12.91;41.40;95822.88;5005302;28;20099;-66
2021/06/03 03:29:37;;;;;;;2.90;1.52;;;;;;;12.91;40.56;95825.53;5008269;28;20078;-66
2021/06/03 03:32:03;;;;;;;2.35;1.38;;;;;;;12.91;40.36;95826.38;5008766;28;20078;-66
2021/06/03 03:34:28;;;;;;;3.92;1.58;;;;;;;12.95;39.75;95826.81;5009274;28;20110;-66
2021/06/03 03:36:53;;;;;;;1.83;1.60;;;;;;;12.93;40.08;95827.00;5008947;28;20613;-70
2021/06/03 03:39:19;;;;;;;1.45;1.30;;;;;;;13.00;40.30;95826.28;5023765;28;20181;-66
2021/06/03 03:41:44;;;;;;;1.60;1.50;;;;;;;12.96;39.68;95831.16;5008703;28;20124;-66
2021/06/03 03:44:10;;;;;;;3.00;1.23;;;;;;;12.92;39.76;95828.03;5009257;28;20097;-66
2021/06/03 03:46:36;;;;;;;1.77;1.67;;;;;;;12.95;39.66;95834.03;5006362;28;20103;-66
2021/06/03 03:49:01;;;;;;;2.85;1.77;;;;;;;13.01;39.96;95833.28;5005769;28;20546;-66
2021/06/03 03:51:27;;;;;;;3.05;1.70;;;;;;;13.10;40.76;95834.84;5008628;28;20094;-66
2021/06/03 03:53:52;;;;;;;1.38;1.27;;;;;;;13.19;40.49;95835.53;5008678;28;20110;-66
2021/06/03 03:56:18;;;;;;;1.77;1.45;;;;;;;13.24;39.98;95841.16;5008967;28;20090;-66
2021/06/03 03:58:43;;;;;;;3.13;1.63;;;;;;;13.33;40.97;95836.53;5008567;28;20114;-66
2021/06/03 04:01:09;;;;;;;2.00;1.60;;;;;;;13.46;39.96;95841.16;5008775;28;20148;-66
2021/06/03 04:03:35;;;;;;;1.80;1.70;;;;;;;13.51;39.61;95843.25;5008890;28;20122;-66
2021/06/03 04:06:00;;;;;;;1.73;1.50;;;;;;;13.55;40.32;95841.88;5009322;28;20133;-66
2021/06/03 04:08:26;;;;;;;1.60;1.50;;;;;;;13.57;39.72;95842.50;5011453;28;20101;-69
2021/06/03 04:10:51;;;;;;;1.42;1.40;;;;;;;13.64;39.71;95845.25;5012795;28;20564;-66
2021/06/03 04:13:17;;;;;;;2.17;1.70;;;;;;;13.70;39.67;95839.94;5009802;28;20086;-66
2021/06/03 04:15:42;;;;;;;1.67;1.58;;;;;;;13.76;39.65;95841.03;5012227;28;20074;-66
2021/06/03 04:18:08;;;;;;;5.38;1.45;;;;;;;13.83;39.50;95849.94;5012599;28;20109;-66
2021/06/03 04:20:34;;;;;;;2.83;1.33;;;;;;;13.90;39.42;95852.69;5012790;28;20152;-66
2021/06/03 04:23:00;;;;;;;2.00;1.50;;;;;;;13.97;39.61;95851.94;5011452;28;20546;-66
2021/06/03 04:25:25;;;;;;;3.13;1.58;;;;;;;14.07;38.96;95852.41;5026128;28;20173;-66
2021/06/03 04:27:51;;;;;;;1.83;1.58;;;;;;;14.17;39.46;95852.91;5013295;28;20447;-66
2021/06/03 04:30:19;;;;;;;1.55;1.45;;;;;;;14.31;39.33;95851.13;5011944;28;20509;-66
2021/06/03 04:32:45;;;;;;;1.90;1.60;;;;;;;14.37;38.07;95851.38;5007656;28;20160;-66
2021/06/03 04:35:11;;;;;;;1.70;1.60;;;;;;;14.48;39.22;95850.81;5011831;28;20099;-66
2021/06/03 04:37:36;;;;;;;1.58;1.42;;;;;;;14.59;38.13;95854.81;5012470;28;20502;-66
2021/06/03 04:40:02;;;;;;;2.13;1.70;;;;;;;14.70;38.42;95848.06;5011296;28;20502;-66
2021/06/03 04:42:27;;;;;;;1.50;1.40;;;;;;;14.88;38.28;95850.22;5011810;28;20122;-66
2021/06/03 04:44:52;;;;;;;1.60;1.50;;;;;;;15.00;37.64;95855.00;5012271;28;20083;-66
2021/06/03 04:47:18;;;;;;;1.52;1.40;;;;;;;15.12;38.01;95852.59;5012278;28;20106;-66
2021/06/03 04:49:44;;;;;;;1.38;1.27;;;;;;;15.30;38.73;95852.03;5011940;28;20823;-66
2021/06/03 04:54:54;;;;;;;1.90;1.60;;;;;;;15.54;37.46;95861.34;5006607;28;20160;-66
2021/06/03 04:57:19;;;;;;;2.10;1.70;;;;;;;15.65;37.27;95862.66;5010440;28;20124;-66
2021/06/03 04:59:45;;;;;;;2.17;1.42;;;;;;;15.86;37.63;95860.78;5010874;28;20136;-66
2021/06/03 05:02:10;;;;;;;1.58;1.48;;;;;;;16.05;37.66;95861.81;5011603;28;20212;-66
2021/06/03 05:04:35;;;;;;;1.60;1.50;;;;;;;16.26;37.70;95870.69;5010209;28;20078;-66
2021/06/03 05:07:01;;;;;;;1.80;1.50;;;;;;;16.39;36.42;95869.91;5026211;28;20102;-71
2021/06/03 05:09:26;;;;;;;2.42;1.70;;;;;;;16.54;36.44;95874.19;5011303;28;20086;-66
2021/06/03 05:11:52;;;;;;;1.80;1.70;;;;;;;16.71;36.50;95877.25;5012172;28;20073;-66
2021/06/03 05:14:17;;;;;;;4.30;1.50;;;;;;;16.95;36.12;95877.59;5009052;28;20105;-66
2021/06/03 05:16:43;;;;;;;1.60;1.50;;;;;;;17.12;35.41;95869.91;5009639;28;20074;-66
2021/06/03 05:19:08;;;;;;;2.10;1.60;;;;;;;17.33;36.30;95882.22;5008924;28;20157;-66
2021/06/03 05:21:34;;;;;;;2.72;1.58;;;;;;;17.56;36.69;95885.41;5009190;28;20094;-66
2021/06/03 05:23:59;;;;;;;1.85;1.50;;;;;;;17.80;36.35;95886.50;5009920;28;20078;-69
2021/06/03 05:26:25;;;;;;;1.65;1.50;;;;;;;18.01;35.69;95888.03;5005937;28;20106;-66
2021/06/03 05:28:50;;;;;;;2.30;1.45;;;;;;;18.23;35.28;95890.34;5005516;28;20105;-66
2021/06/03 05:31:15;;;;;;;2.30;1.90;;;;;;;18.38;33.70;95894.56;5010820;28;20113;-66
2021/06/03 05:33:41;;;;;;;2.40;1.60;;;;;;;18.49;34.83;95893.81;5006759;28;20109;-66
2021/06/03 05:36:06;;;;;;;4.03;1.42;;;;;;;18.65;35.33;95894.31;5006512;28;20079;-67
2021/06/03 05:38:32;;;;;;;1.60;1.48;;;;;;;18.76;36.37;95898.97;5010533;28;20459;-66
2021/06/03 05:40:57;;;;;;;13.85;7.00;;;;;;;18.92;34.46;95902.13;5014075;28;20086;-66
2021/06/03 05:43:22;;;;;;;3.28;2.20;;;;;;;19.20;35.47;95907.00;5013367;28;20117;-66
2021/06/03 05:45:48;;;;;;;1.75;1.50;;;;;;;19.34;35.31;95893.34;5010595;28;20102;-67
2021/06/03 05:48:13;;;;;;;1.55;1.40;;;;;;;19.55;35.27;95904.72;5011358;28;20869;-66
2021/06/03 05:50:39;;;;;;;4.72;1.67;;;;;;;19.64;34.76;95903.34;5010203;28;20105;-66
2021/06/03 05:53:04;;;;;;;1.90;1.50;;;;;;;19.78;34.55;95903.97;5010690;28;20083;-66
2021/06/03 05:55:30;;;;;;;1.73;1.58;;;;;;;20.00;33.95;95902.63;5009242;28;20110;-67
2021/06/03 05:57:55;;;;;;;2.45;1.60;;;;;;;19.92;34.22;95914.59;5010757;28;20117;-66
2021/06/03 06:00:25;;;;;;;1.63;1.50;;;;;;;20.12;34.06;95914.28;5011439;28;20089;-66
2021/06/03 06:02:55;;;;;;;1.50;1.40;;;;;;;20.25;33.90;95918.66;5009157;28;20153;-66
2021/06/03 06:08:06;;;;;;;1.75;1.30;;;;;;;20.68;30.48;95929.41;5009876;28;20617;-66
2021/06/03 06:10:32;;;;;;;3.13;1.60;;;;;;;21.00;32.68;95926.31;5010849;28;20106;-67
2021/06/03 06:12:57;;;;;;;2.10;1.55;;;;;;;20.57;33.40;95931.84;5010564;28;20085;-66
2021/06/03 06:15:23;;;;;;;1.70;1.60;;;;;;;20.69;32.80;95941.88;5008994;28;20490;-67
2021/06/03 06:17:49;;;;;;;1.60;1.48;;;;;;;20.12;33.05;95938.63;4992505;28;20106;-66
2021/06/03 06:20:14;;;;;;;2.30;1.50;;;;;;;20.29;31.72;95944.16;5010515;28;20456;-66
2021/06/03 06:22:41;;;;;;;2.53;1.50;;;;;;;20.68;33.37;95949.19;5010230;28;20107;-67
2021/06/03 06:25:07;;;;;;;1.23;1.15;;;;;;;20.82;32.92;95938.94;5009845;28;20088;-67
2021/06/03 06:27:32;;;;;;;2.20;1.70;;;;;;;21.05;32.50;95942.69;5009005;28;20098;-67
2021/06/03 06:29:58;;;;;;;2.30;1.55;;;;;;;21.29;32.63;95941.84;5008458;28;20107;-66
2021/06/03 06:32:23;;;;;;;1.83;1.50;;;;;;;21.39;33.04;95944.75;5010442;28;20074;-66
2021/06/03 06:34:48;;;;;;;1.88;1.60;;;;;;;21.59;31.37;95943.50;5020477;28;20113;-67
2021/06/03 06:37:14;;;;;;;2.28;1.63;;;;;;;21.37;32.39;95945.00;5011016;28;20437;-67
2021/06/03 06:39:39;;;;;;;1.58;1.48;;;;;;;20.30;34.34;95945.84;5010074;28;20486;-67
2021/06/03 06:42:05;;;;;;;2.17;1.73;;;;;;;19.80;34.96;95942.38;5009615;28;20110;-67
2021/06/03 06:44:30;;;;;;;5.57;1.70;;;;;;;20.49;33.92;95951.13;5008912;28;20090;-67
2021/06/03 06:46:56;;;;;;;2.58;1.52;;;;;;;20.59;33.85;95958.66;5009766;28;20118;-67
2021/06/03 06:49:21;;;;;;;1.73;1.63;;;;;;;20.36;34.47;95958.41;5009130;28;20086;-67
2021/06/03 06:51:48;;;;;;;2.63;1.52;;;;;;;20.70;33.97;95960.56;5010708;28;20094;-67
2021/06/03 06:54:13;;;;;;;2.13;1.88;;;;;;;19.73;35.30;95965.97;5007610;28;20112;-67
2021/06/03 06:56:39;;;;;;;1.92;1.80;;;;;;;20.65;34.08;95970.44;5009394;28;20482;-66
2021/06/03 06:59:05;;;;;;;4.82;1.90;;;;;;;21.22;33.30;95969.00;5009568;28;20110;-66
2021/06/03 07:01:31;;;;;;;4.72;2.50;;;;;;;21.38;32.50;95962.03;5009696;28;20113;-66
2021/06/03 07:03:56;;;;;;;4.15;1.80;;;;;;;21.70;32.36;95960.78;5008832;28;20519;-66
2021/06/03 07:06:22;;;;;;;2.03;1.80;;;;;;;22.13;31.96;95964.84;5004533;28;20110;-67
2021/06/03 07:08:47;;;;;;;1.65;1.55;;;;;;;22.26;32.33;95962.88;5008895;28;20089;-67
2021/06/03 07:11:13;;;;;;;2.72;1.58;;;;;;;22.34;31.74;95962.50;5009804;28;20431;-67
2021/06/03 07:13:38;;;;;;;3.83;2.03;;;;;;;22.69;30.98;95962.50;5009598;28;20074;-67
2021/06/03 07:16:04;;;;;;;2.05;1.75;;;;;;;21.18;33.08;95968.66;5009709;28;20082;-66
2021/06/03 07:18:29;;;;;;;3.28;1.77;;;;;;;21.55;33.21;95966.72;5006768;28;20110;-67
2021/06/03 07:20:55;;;;;;;3.65;1.60;;;;;;;21.43;33.02;95966.75;5008497;28;20109;-67
2021/06/03 07:23:21;;;;;;;2.10;1.60;;;;;;;21.85;32.92;95961.06;5003455;28;20110;-67
2021/06/03 07:25:46;;;;;;;2.75;2.10;;;;;;;22.53;31.24;95960.38;5007168;28;20615;-66
2021/06/03 07:28:12;;;;;;;1.80;1.70;;;;;;;23.02;30.95;95960.81;5008901;28;20136;-67
2021/06/03 07:30:37;;;;;;;3.08;1.50;;;;;;;22.96;31.87;95962.63;5007963;28;20110;-67
2021/06/03 07:33:04;;;;;;;3.08;1.83;;;;;;;23.38;31.05;95964.03;5000873;28;20086;-69
2021/06/03 07:35:29;;;;;;;3.38;2.35;;;;;;;23.60;29.87;95959.66;5020730;28;20556;-67
2021/06/03 07:37:55;;;;;;;3.30;1.80;;;;;;;23.74;30.36;95965.53;5024553;28;20110;-67
2021/06/03 07:40:25;;;;;;;1.73;1.63;;;;;;;24.00;29.96;95961.19;5009040;28;20471;-67
2021/06/03 07:42:51;;;;;;;3.38;1.70;;;;;;;24.29;29.56;95957.38;5006142;28;20201;-71
2021/06/03 07:45:17;;;;;;;1.92;1.83;;;;;;;24.58;29.40;95962.53;5021168;28;20173;-67
2021/06/03 07:47:43;;;;;;;2.97;1.67;;;;;;;24.42;29.31;95962.44;5008121;28;20483;-67
2021/06/03 07:50:09;;;;;;;4.43;1.80;;;;;;;23.54;30.68;95956.06;5007930;28;20109;-67
2021/06/03 07:52:36;;;;;;;1.50;1.40;;;;;;;23.90;29.91;95958.38;5024623;28;20112;-67
2021/06/03 07:55:05;;;;;;;4.18;1.75;;;;;;;24.71;29.91;95969.41;5009479;28;20136;-67
2021/06/03 07:57:31;;;;;;;2.85;1.70;;;;;;;23.32;31.00;95967.75;5010279;28;20082;-67
2021/06/03 07:59:56;;;;;;;4.60;1.67;;;;;;;24.01;27.55;95964.75;5008589;28;20093;-66
2021/06/03 08:02:21;;;;;;;5.20;1.70;;;;;;;24.42;27.39;95961.59;5009760;28;20115;-67
2021/06/03 08:04:47;;;;;;;1.50;1.40;;;;;;;25.16;26.93;95967.31;5009165;28;20089;-67
2021/06/03 08:07:12;;;;;;;1.27;1.17;;;;;;;25.35;27.82;95964.09;5011817;28;20108;-67
2021/06/03 08:09:38;;;;;;;4.50;1.92;;;;;;;24.33;28.66;95977.56;5008342;28;20067;-67
2021/06/03 08:12:04;;;;;;;1.88;1.52;;;;;;;23.55;30.28;95968.56;5008961;28;20074;-67
2021/06/03 08:14:29;;;;;;;2.78;1.50;;;;;;;24.65;29.46;95974.03;5007313;28;20106;-67
2021/06/03 08:16:55;;;;;;;1.58;1.48;;;;;;;25.18;28.46;95972.47;5009124;28;20450;-67
2021/06/03 08:19:20;;;;;;;1.45;1.23;;;;;;;25.40;28.21;95974.22;5009133;28;20675;-67
2021/06/03 08:21:47;;;;;;;2.67;1.77;;;;;;;23.29;30.93;95970.97;5009719;28;20369;-67
2021/06/03 08:24:12;;;;;;;1.70;1.60;;;;;;;24.73;28.92;95967.28;5009051;28;20161;-66
2021/06/03 08:26:38;;;;;;;5.57;1.63;;;;;;;24.08;29.92;95973.50;5009417;28;20641;-66
2021/06/03 08:29:03;;;;;;;2.45;1.60;;;;;;;24.06;29.91;95971.03;5009469;28;20074;-66
2021/06/03 08:31:29;;;;;;;1.75;1.60;;;;;;;24.57;28.37;95972.59;5008770;28;20102;-66
2021/06/03 08:34:00;;;;;;;1.67;1.40;;;;;;;25.05;28.10;95973.78;5008078;28;20094;-67
2021/06/03 08:36:27;;;;;;;3.05;1.65;;;;;;;25.32;28.60;95975.56;5009855;28;20100;-67
2021/06/03 08:38:52;;;;;;;5.07;3.10;;;;;;;23.55;30.06;95977.53;5009825;28;20133;-67
2021/06/03 08:41:17;;;;;;;2.90;2.55;;;;;;;22.96;30.49;95976.22;5007756;28;20082;-67
2021/06/03 08:43:43;;;;;;;1.80;1.40;;;;;;;24.56;28.49;95981.03;5024150;28;20122;-66
2021/06/03 08:46:08;;;;;;;2.47;1.58;;;;;;;23.71;30.38;95983.16;5023774;28;20110;-66
2021/06/03 08:48:34;;;;;;;2.85;1.60;;;;;;;23.66;29.65;95983.09;5009811;28;20082;-67
2021/06/03 08:51:02;;;;;;;2.65;1.80;;;;;;;23.30;31.88;95988.91;5008992;28;20517;-67
2021/06/03 08:53:28;;;;;;;3.13;1.90;;;;;;;23.42;30.17;95986.88;5009079;28;20275;-67
2021/06/03 08:58:38;;;;;;;2.33;1.52;;;;;;;23.59;30.80;95985.19;5012285;28;20633;-66
2021/06/03 09:01:04;;;;;;;5.20;1.63;;;;;;;23.28;30.36;95993.75;5012583;28;20094;-67
2021/06/03 09:03:30;;;;;;;3.87;1.70;;;;;;;21.92;33.28;95995.38;5011962;28;20160;-67
2021/06/03 09:05:56;;;;;;;1.70;1.60;;;;;;;21.17;34.12;95996.78;5013997;28;20114;-66
2021/06/03 09:08:26;;;;;;;1.55;1.45;;;;;;;22.99;32.10;95988.47;5027955;28;20086;-67
2021/06/03 09:10:57;;;;;;;3.28;1.83;;;;;;;23.95;29.53;95988.34;5011956;28;20189;-67
2021/06/03 09:13:25;;;;;;;1.75;1.60;;;;;;;21.98;32.83;95995.22;5012370;28;20078;-67
2021/06/03 09:15:52;;;;;;;3.88;1.40;;;;;;;23.76;30.08;95996.81;5011312;28;20627;-67
2021/06/03 09:18:31;;;;;;;2.65;1.60;;;;;;;23.37;29.45;95978.69;5010857;28;20646;-66
2021/06/03 09:21:26;;;;;;;3.63;2.08;;;;;;;22.26;32.05;95988.13;5011603;28;20081;-67
2021/06/03 09:23:58;;;;;;;2.50;1.65;;;;;;;24.13;29.62;95991.78;5008750;28;20491;-68
2021/06/03 09:26:25;;;;;;;3.05;1.70;;;;;;;23.74;30.52;95998.16;5027386;28;20110;-67
2021/06/03 09:28:51;;;;;;;1.67;1.58;;;;;;;23.94;30.64;95992.13;5012791;28;20106;-67
2021/06/03 09:31:29;;;;;;;2.80;1.80;;;;;;;23.84;29.48;95992.00;5012548;28;20189;-67
2021/06/03 09:33:59;;;;;;;1.60;1.50;;;;;;;23.78;29.98;95989.25;5009788;28;20109;-67
2021/06/03 09:36:35;;;;;;;2.15;1.60;;;;;;;24.24;28.97;96006.28;5010647;28;20086;-66
2021/06/03 09:39:00;;;;;;;2.53;1.50;;;;;;;23.04;30.51;95994.78;5011839;28;20164;-67
2021/06/03 09:41:27;;;;;;;3.90;1.83;;;;;;;21.36;34.27;96000.22;5010900;28;20153;-67
2021/06/03 09:44:02;;;;;;;3.90;1.60;;;;;;;23.85;30.59;95985.50;5011500;28;20376;-67
2021/06/03 09:46:28;;;;;;;3.75;1.50;;;;;;;24.28;29.15;95991.94;5010411;28;20105;-67
2021/06/03 09:48:54;;;;;;;2.97;1.60;;;;;;;22.60;30.42;95990.03;4994264;28;20161;-67
2021/06/03 09:51:27;;;;;;;3.20;1.50;;;;;;;23.53;30.37;95987.03;5010791;28;20133;-67
2021/06/03 09:53:52;;;;;;;2.25;1.45;;;;;;;25.36;28.24;95987.56;5010311;28;20886;-67
2021/06/03 09:56:24;;;;;;;3.03;1.70;;;;;;;24.14;29.34;95996.97;5011646;28;20157;-67
2021/06/03 09:58:50;;;;;;;3.58;1.63;;;;;;;25.41;27.13;95987.56;5009915;28;20098;-67
2021/06/03 10:01:41;;;;;;;1.80;1.70;;;;;;;24.70;27.62;95992.28;5018708;28;20094;-67
2021/06/03 10:04:07;;;;;;;2.33;1.40;;;;;;;23.12;29.74;95993.50;5004374;28;20152;-67
2021/06/03 10:06:33;;;;;;;3.53;1.77;;;;;;;23.17;29.87;95988.22;4991951;28;20106;-67
2021/06/03 10:08:58;;;;;;;1.67;1.45;;;;;;;24.73;28.38;95997.22;5006534;28;20093;-67
2021/06/03 10:11:43;;;;;;;3.85;2.33;;;;;;;25.36;25.02;95993.00;5000971;28;20589;-67
2021/06/03 10:14:16;;;;;;;3.55;2.10;;;;;;;25.85;24.36;95988.28;5005726;28;20121;-67
2021/06/03 10:16:42;;;;;;;1.92;1.77;;;;;;;26.59;25.19;95990.91;5004562;28;20074;-67
2021/06/03 10:19:24;;;;;;;1.80;1.70;;;;;;;26.73;25.65;95993.91;5004070;28;20152;-67
2021/06/03 10:22:13;;;;;;;3.75;2.42;;;;;;;26.83;22.96;95989.53;5019416;28;20121;-67
2021/06/03 10:24:59;;;;;;;4.40;2.60;;;;;;;27.41;23.95;95991.06;4999559;28;20113;-67
2021/06/03 10:27:35;;;;;;;3.83;2.35;;;;;;;27.57;25.08;95991.84;5006022;28;20478;-67
2021/06/03 10:30:02;;;;;;;;;;;;;;;27.94;23.97;95995.22;5005517;28;20123;-67
2021/06/03 10:32:29;;;;;;;2.20;2.00;;;;;;;27.57;24.71;96000.03;5000230;28;20319;-67
2021/06/03 10:34:55;;;;;;;4.65;2.40;;;;;;;28.02;24.26;95997.38;5017670;28;20133;-67
2021/06/03 10:37:22;;;;;;;3.10;1.70;;;;;;;28.20;24.99;95997.81;5018256;28;20466;-67
2021/06/03 10:39:47;;;;;;;4.63;3.00;;;;;;;26.99;24.46;95993.88;5004009;28;20082;-67
2021/06/03 10:42:14;;;;;;;3.67;1.90;;;;;;;27.68;24.77;95995.38;5003796;28;20129;-67
2021/06/03 10:44:40;;;;;;;3.67;1.77;;;;;;;27.61;24.51;95986.59;5000381;28;20555;-66
2021/06/03 10:47:06;;;;;;;2.53;2.33;;;;;;;27.65;22.87;95990.44;5004258;28;20582;-67
2021/06/03 10:49:33;;;;;;;2.77;2.13;;;;;;;27.89;25.34;95993.34;4983936;28;20074;-67
2021/06/03 10:52:00;;;;;;;5.03;1.88;;;;;;;26.20;26.61;95997.66;5003963;28;20090;-67
2021/06/03 10:54:46;;;;;;;3.05;1.73;;;;;;;27.81;24.20;95993.09;4999264;28;20102;-67
2021/06/03 10:57:12;;;;;;;;;;;;;;;26.93;26.29;95986.78;4999811;28;20563;-67
2021/06/03 10:59:38;;;;;;;2.90;1.70;;;;;;;26.37;25.94;95994.69;5019111;28;19990;-67
2021/06/03 11:02:05;;;;;;;6.47;1.97;;;;;;;25.31;27.64;95991.06;5003461;28;20146;-67
2021/06/03 11:04:30;;;;;;;4.55;2.45;;;;;;;26.17;27.60;95994.69;5019460;28;20197;-67
2021/06/03 11:06:56;;;;;;;3.90;1.93;;;;;;;26.96;25.65;95988.16;4999877;28;20106;-67
2021/06/03 11:09:29;;;;;;;2.30;2.10;;;;;;;27.35;24.56;95970.31;5003038;28;20161;-67
2021/06/03 11:12:11;;;;;;;3.28;1.90;;;;;;;28.13;25.60;95970.75;5003226;28;20534;-68
2021/06/03 11:14:59;;;;;;;5.05;2.10;;;;;;;28.30;24.52;95971.50;4998945;28;20163;-67
2021/06/03 11:17:53;;;;;;;2.42;1.60;;;;;;;29.01;23.38;95962.94;4999742;28;20074;-68
2021/06/03 11:20:35;;;;;;;2.38;1.70;;;;;;;28.69;24.23;95970.66;4998470;28;20163;-68
2021/06/03 11:23:41;;;;;;;4.80;3.65;;;;;;;27.56;24.95;95973.78;5003779;28;20106;-67
2021/06/03 11:26:07;;;;;;;;;;;;;;;26.31;26.86;95964.97;5001270;28;20117;-67
2021/06/03 11:28:32;;;;;;;2.37;1.53;;;;;;;26.43;26.13;95962.78;5002783;28;20350;-67
2021/06/03 11:31:21;;;;;;;4.17;2.60;;;;;;;27.41;26.11;95966.47;5003989;28;20121;-67
2021/06/03 11:34:08;;;;;;;2.58;1.75;;;;;;;28.54;23.73;95974.31;5003680;28;20110;-67
2021/06/03 11:36:34;;;;;;;2.28;1.55;;;;;;;28.77;23.54;95970.03;5000214;28;20121;-67
2021/06/03 11:38:59;;;;;;;6.53;2.50;;;;;;;29.15;24.28;95963.06;4996372;28;20110;-67
2021/06/03 11:41:38;;;;;;;3.20;2.20;;;;;;;29.62;20.84;95966.13;5002380;28;20341;-67
2021/06/03 11:44:13;;;;;;;5.25;1.85;;;;;;;29.19;23.32;95972.38;4995787;28;20096;-68